Wetterdaten: September 2014
Datum Temp Feuchte Luftdruck Regen Wind Richtung Sonnenschein UV Solar Windben
01.09.2014 13,8 C 82 % 1019,3 hPa 3,0 l/m 0,1 km/h W-NW 0,42 h 1,2 UV-I 102 W/m 1,2 km/h
02.09.2014 14,3 C 81 % 1022,2 hPa 0,4 l/m 0,2 km/h N-NO 0,17 h 1,0 UV-I 88 W/m 3,6 km/h
03.09.2014 14,7 C 77 % 1022,8 hPa 0,0 l/m 1,5 km/h NO 5,50 h 2,3 UV-I 285 W/m 12,1 km/h
04.09.2014 17,7 C 76 % 1018,4 hPa 0,0 l/m 3,7 km/h O 8,33 h 2,4 UV-I 329 W/m 10,5 km/h
05.09.2014 19,0 C 78 % 1013,4 hPa 0,0 l/m 0,1 km/h SO 7,25 h 1,9 UV-I 260 W/m 2,4 km/h
06.09.2014 19,3 C 74 % 1011,8 hPa 1,6 l/m 0,3 km/h NW 8,08 h 2,3 UV-I 325 W/m 2,4 km/h
07.09.2014 14,6 C 78 % 1014,2 hPa 10,0 l/m 0,0 km/h W-NW 1,75 h 1,1 UV-I 117 W/m 0,0 km/h
08.09.2014 13,3 C 78 % 1017,3 hPa 0,4 l/m 1,2 km/h NW 5,92 h 2,2 UV-I 289 W/m 2,8 km/h
09.09.2014 12,7 C 76 % 1019,0 hPa 0,0 l/m 0,6 km/h NW 0,58 h 1,3 UV-I 140 W/m 2,8 km/h
10.09.2014 13,6 C 76 % 1018,0 hPa 0,2 l/m 2,7 km/h NW 0,58 h 1,5 UV-I 142 W/m 9,7 km/h
11.09.2014 12,3 C 77 % 1018,1 hPa 1,2 l/m 1,5 km/h N-NO 2,92 h 1,6 UV-I 214 W/m 4,8 km/h
12.09.2014 15,6 C 74 % 1020,2 hPa 0,0 l/m 5,6 km/h N 3,25 h 1,9 UV-I 235 W/m 12,5 km/h
13.09.2014 14,5 C 76 % 1022,5 hPa 0,6 l/m 2,0 km/h N 0,00 h 0,8 UV-I 65 W/m 6,0 km/h
14.09.2014 14,9 C 74 % 1019,3 hPa 0,0 l/m 1,3 km/h N-NO 4,33 h 2,1 UV-I 249 W/m 4,0 km/h
15.09.2014 16,9 C 73 % 1016,8 hPa 0,0 l/m 3,4 km/h SO 1,83 h 1,8 UV-I 181 W/m 6,0 km/h
16.09.2014 16,9 C 73 % 1015,4 hPa 0,0 l/m 2,3 km/h SO 6,25 h 2,2 UV-I 280 W/m 5,6 km/h
17.09.2014 17,5 C 72 % 1012,9 hPa 0,0 l/m 1,4 km/h SO 8,58 h 2,3 UV-I 335 W/m 7,3 km/h
18.09.2014 17,0 C 72 % 1011,8 hPa 7,8 l/m 3,0 km/h SO 5,67 h 2,2 UV-I 254 W/m 5,2 km/h
19.09.2014 17,8 C 71 % 1011,7 hPa 28,0 l/m 1,1 km/h S-SO 3,67 h 2,0 UV-I 222 W/m 2,8 km/h
20.09.2014 17,7 C 70 % 1013,0 hPa 2,8 l/m 0,1 km/h NW 1,58 h 1,4 UV-I 162 W/m 2,0 km/h
21.09.2014 13,0 C 71 % 1014,8 hPa 6,6 l/m 1,5 km/h N-NW 1,08 h 1,0 UV-I 117 W/m 4,4 km/h
22.09.2014 10,4 C 73 % 1017,3 hPa 2,6 l/m 3,0 km/h N-NW 2,50 h 1,2 UV-I 177 W/m 10,1 km/h
23.09.2014 9,9 C 71 % 1019,4 hPa 0,0 l/m 0,0 km/h N-NW 2,75 h 1,8 UV-I 213 W/m 0,0 km/h
24.09.2014 10,6 C 71 % 1011,4 hPa 0,4 l/m 3,7 km/h S 0,67 h 1,2 UV-I 171 W/m 14,9 km/h
25.09.2014 12,7 C 71 % 1017,6 hPa 0,6 l/m 1,0 km/h W-NW 2,00 h 1,6 UV-I 156 W/m 8,4 km/h
26.09.2014 14,1 C 69 % 1022,5 hPa 2,6 l/m 2,4 km/h SW 0,00 h 0,8 UV-I 64 W/m 14,1 km/h
27.09.2014 12,0 C 70 % 1027,4 hPa 0,0 l/m 0,0 km/h N-NW 4,58 h 1,7 UV-I 248 W/m 0,0 km/h
28.09.2014 13,1 C 69 % 1023,7 hPa 0,2 l/m 0,8 km/h SO 8,42 h 1,7 UV-I 264 W/m 4,0 km/h
29.09.2014 16,5 C 68 % 1022,4 hPa 1,8 l/m 0,2 km/h S-SW 5,50 h 1,7 UV-I 234 W/m 2,0 km/h
30.09.2014 14,6 C 67 % 1024,3 hPa 0,2 l/m 0,5 km/h S-SW 2,25 h 1,2 UV-I 149 W/m 4,0 km/h
Min-Datum 24.09.14 06.09.14 24.09.14 19 Tage 01.09.14 - - - - 01.09.14
Min-Zeit 07:20 16:00 17:10 - 00:00 - - - - 00:00
Minimum 6,2 C 51 % 1009,9 hPa - 0,0 km/h - - - - 0,0 km/h
Max-Datum 06.09.14 01.09.14 27.09.14 19.09.14 22.09.14 - 17.09.14 03.09.14 11.09.14 22.09.14
Max-Zeit 15:35 06:50 12:00 09:40 12:00 - 18:00 12:35 12:05 12:00
Maximum 26,1 C 84 % 1028,8 hPa 28,0 l/m 30,3 km/h
N-NW
- 8,50 h 4,7 UV-I 946 W/m 62,8 km/h
N-NW
Durchschnitt 14,7 C 74 % 1018,0 hPa #71,0 l/m 1,5 km/h SO #106:25 h 1,7 UV-I 202 W/m 5,5 km/h

Durchschnitt Minimum Temp.10,9 C
Durchschnitt Maximum Temp.19,0 C